Time;durP1;ratioP1;P1;durP2;ratioP2;P2;SDS_P1;SDS_P2;PMS_P1;PMS_P2;Temp;Humidity;BMP_temperature;BMP_pressure;BME280_temperature;BME280_humidity;BME280_pressure;Samples;Min_cycle;Max_cycle;Signal;HPM_P1;HPM_P2
2021/07/10 00:02:55;;;;;;;6.83;1.65;;;;;;;19.93;81.89;99183.14;4201339;83;21071;-79
2021/07/10 00:08:57;;;;;;;8.50;1.70;;;;;;;19.75;81.08;99192.48;4208788;83;21103;-79
2021/07/10 00:14:58;;;;;;;3.70;1.90;;;;;;;19.66;81.66;99185.34;4203088;83;21042;-79
2021/07/10 00:20:59;;;;;;;5.83;1.85;;;;;;;19.69;81.42;99199.16;4206615;83;21062;-79
2021/07/10 00:27:01;;;;;;;13.75;2.22;;;;;;;19.75;81.09;99203.58;4207549;83;20967;-80
2021/07/10 00:33:03;;;;;;;4.80;2.25;;;;;;;19.72;80.69;99212.19;4203427;83;20996;-79
2021/07/10 00:39:05;;;;;;;8.45;2.40;;;;;;;19.68;80.46;99218.44;4207395;83;21011;-79
2021/07/10 00:45:09;;;;;;;2.40;1.10;;;;;;;19.60;80.03;99228.13;4210208;83;21039;-79
2021/07/10 00:51:11;;;;;;;6.87;1.40;;;;;;;19.53;79.65;99227.50;4210161;83;20968;-79
2021/07/10 00:57:13;;;;;;;7.15;1.05;;;;;;;19.46;79.36;99240.92;4208634;83;21055;-80
2021/07/10 01:03:15;;;;;;;6.12;1.05;;;;;;;19.39;79.32;99245.22;4202507;83;21011;-79
2021/07/10 01:09:18;;;;;;;6.37;0.90;;;;;;;19.27;79.33;99236.72;4207271;83;21071;-79
2021/07/10 01:15:23;;;;;;;3.62;0.90;;;;;;;19.24;79.40;99250.06;4197330;83;21018;-79
2021/07/10 01:21:25;;;;;;;3.52;0.80;;;;;;;19.10;78.77;99252.52;4188733;83;20975;-79
2021/07/10 01:27:26;;;;;;;2.98;0.80;;;;;;;19.06;79.33;99245.48;4208246;83;21011;-79
2021/07/10 01:33:27;;;;;;;5.20;1.10;;;;;;;19.05;78.82;99231.41;4117019;85;21028;-80
2021/07/10 01:39:29;;;;;;;5.78;1.15;;;;;;;18.96;78.94;99240.30;4116082;85;21107;-79
2021/07/10 01:45:36;;;;;;;3.70;1.10;;;;;;;18.88;78.56;99244.41;4079732;85;21486;-79
2021/07/10 01:51:37;;;;;;;4.15;0.82;;;;;;;18.77;78.61;99255.51;4077084;85;21159;-81
2021/07/10 01:57:39;;;;;;;9.38;4.37;;;;;;;18.68;78.61;99254.06;4078821;85;21051;-79
2021/07/10 02:03:41;;;;;;;13.32;2.85;;;;;;;18.76;78.95;99256.13;4205932;83;21122;-79
2021/07/10 02:09:44;;;;;;;11.53;3.75;;;;;;;18.73;79.00;99267.45;4148753;84;20992;-81
2021/07/10 02:15:45;;;;;;;7.17;3.20;;;;;;;18.76;79.16;99260.29;4146816;84;21020;-82
2021/07/10 02:21:46;;;;;;;2.05;0.70;;;;;;;18.59;78.80;99269.08;4144054;84;21896;-79
2021/07/10 02:27:49;;;;;;;2.83;0.75;;;;;;;18.44;78.22;99294.67;4206297;83;21027;-80
2021/07/10 02:33:51;;;;;;;3.25;0.60;;;;;;;18.36;77.95;99304.27;4205627;83;21462;-79
2021/07/10 02:39:52;;;;;;;4.55;0.68;;;;;;;18.43;78.40;99296.66;4203568;83;21015;-79
2021/07/10 02:45:54;;;;;;;3.20;0.82;;;;;;;18.36;78.35;99289.83;4208911;83;21050;-79
2021/07/10 02:55:12;;;;;;;3.17;0.62;;;;;;;18.31;78.11;99313.05;4595830;74;22897;-78
2021/07/10 03:01:13;;;;;;;6.28;0.80;;;;;;;18.19;78.57;99312.25;4512785;77;21027;-78
2021/07/10 03:07:15;;;;;;;3.77;0.80;;;;;;;18.26;79.31;99298.30;4520400;77;21018;-78
2021/07/10 03:13:16;;;;;;;4.28;1.32;;;;;;;18.29;78.93;99285.76;4522939;77;21080;-79
2021/07/10 03:19:17;;;;;;;1.00;0.57;;;;;;;18.27;79.19;99272.16;4514127;77;21029;-78
2021/07/10 03:25:19;;;;;;;7.37;1.20;;;;;;;18.33;79.43;99267.11;4520197;77;21066;-78
2021/07/10 03:31:20;;;;;;;7.28;0.88;;;;;;;18.40;79.69;99255.92;4521673;77;21009;-80
2021/07/10 03:37:21;;;;;;;3.77;0.70;;;;;;;18.48;79.64;99251.83;4391763;77;44257;-79
2021/07/10 03:43:23;;;;;;;7.03;1.10;;;;;;;18.52;79.40;99255.94;4194377;83;21502;-79
2021/07/10 03:49:24;;;;;;;3.20;0.80;;;;;;;18.49;79.32;99261.73;4184760;83;21125;-79
2021/07/10 03:55:25;;;;;;;7.33;0.55;;;;;;;18.47;79.03;99257.20;4180106;83;21093;-79
2021/07/10 04:01:27;;;;;;;4.03;0.50;;;;;;;18.41;78.82;99259.48;4181619;83;21120;-79
2021/07/10 04:07:30;;;;;;;4.67;0.95;;;;;;;18.40;78.81;99254.53;4182224;83;21799;-80
2021/07/10 04:13:31;;;;;;;6.65;1.20;;;;;;;18.31;78.82;99260.39;4182468;82;21101;-80
2021/07/10 04:19:32;;;;;;;3.05;0.50;;;;;;;18.22;78.82;99265.69;4181437;83;21602;-79
2021/07/10 04:25:34;;;;;;;2.67;0.50;;;;;;;18.12;78.94;99283.28;4184743;83;22311;-78
2021/07/10 04:31:35;;;;;;;4.20;0.62;;;;;;;18.18;79.29;99296.84;4193011;83;21022;-79
2021/07/10 04:37:37;;;;;;;2.42;0.65;;;;;;;18.30;79.25;99303.18;4181195;83;22150;-79
2021/07/10 04:43:38;;;;;;;2.27;0.50;;;;;;;18.40;78.99;99298.13;4189319;82;21645;-79
2021/07/10 04:49:39;;;;;;;4.40;0.57;;;;;;;18.40;78.90;99311.98;4187400;82;21558;-79
2021/07/10 04:55:42;;;;;;;2.22;0.40;;;;;;;18.48;78.96;99321.73;4184009;83;21653;-78
2021/07/10 05:01:43;;;;;;;3.05;0.45;;;;;;;18.47;78.64;99319.58;4147343;83;21802;-79
2021/07/10 05:07:45;;;;;;;0.82;0.42;;;;;;;18.47;78.82;99327.89;4185676;83;21589;-79
2021/07/10 05:13:49;;;;;;;3.83;0.55;;;;;;;18.62;78.70;99331.23;4177303;83;21530;-82
2021/07/10 05:19:50;;;;;;;2.22;0.75;;;;;;;18.71;78.46;99327.32;4191631;83;21081;-85
2021/07/10 05:25:52;;;;;;;6.35;0.80;;;;;;;18.76;78.31;99321.89;4172699;83;21109;-82
2021/07/10 05:31:53;;;;;;;2.02;0.53;;;;;;;18.79;78.22;99320.45;4185807;83;21182;-83
2021/07/10 05:37:54;;;;;;;2.08;0.60;;;;;;;18.88;78.29;99324.84;4194290;83;21037;-83
2021/07/10 05:43:56;;;;;;;6.30;0.90;;;;;;;18.90;78.20;99329.38;4184237;83;21571;-83
2021/07/10 05:49:57;;;;;;;3.35;0.70;;;;;;;18.89;78.53;99325.02;4185439;83;21671;-83
2021/07/10 05:55:58;;;;;;;3.00;0.70;;;;;;;18.98;78.43;99332.19;4181795;83;21172;-83
2021/07/10 06:02:06;;;;;;;5.15;0.70;;;;;;;19.03;78.18;99337.26;4184834;83;21046;-83
2021/07/10 06:08:03;;;;;;;4.10;0.68;;;;;;;19.03;78.26;99348.36;4191184;83;21061;-83
2021/07/10 06:14:08;;;;;;;4.50;0.75;;;;;;;19.11;78.22;99357.34;4187406;83;20998;-83
2021/07/10 06:20:15;;;;;;;2.00;0.88;;;;;;;19.21;78.05;99350.23;4180362;83;21102;-82
2021/07/10 06:26:18;;;;;;;2.15;1.00;;;;;;;19.30;77.58;99356.63;4185108;83;21029;-84
2021/07/10 06:32:19;;;;;;;3.85;1.12;;;;;;;19.39;77.70;99361.02;4180104;83;21595;-83
2021/07/10 06:38:20;;;;;;;2.35;0.60;;;;;;;19.57;77.41;99364.27;4187878;83;21956;-83
2021/07/10 06:44:21;;;;;;;1.72;0.82;;;;;;;19.61;76.82;99358.81;4182124;83;21046;-82
2021/07/10 06:50:22;;;;;;;1.85;0.60;;;;;;;19.65;76.34;99355.38;4190296;82;21561;-82
2021/07/10 06:56:24;;;;;;;2.67;0.62;;;;;;;19.81;76.22;99356.05;4200093;82;21089;-84
2021/07/10 07:02:25;;;;;;;1.22;0.68;;;;;;;19.96;75.64;99349.78;4195940;83;21053;-83
2021/07/10 07:08:26;;;;;;;1.50;0.72;;;;;;;20.03;75.41;99361.33;4187250;83;21153;-83
2021/07/10 07:14:29;;;;;;;2.75;0.70;;;;;;;20.15;75.20;99356.55;4188298;83;21042;-82
2021/07/10 07:20:32;;;;;;;3.33;0.70;;;;;;;20.16;75.03;99364.45;4177941;83;21125;-83
2021/07/10 07:26:35;;;;;;;1.62;0.98;;;;;;;20.42;74.83;99359.13;4191344;83;21105;-82
2021/07/10 07:32:37;;;;;;;1.25;0.70;;;;;;;20.51;74.40;99363.48;4181405;83;21077;-83
2021/07/10 07:38:38;;;;;;;0.85;0.62;;;;;;;20.54;73.77;99366.19;4186033;83;21061;-84
2021/07/10 07:44:41;;;;;;;4.00;0.95;;;;;;;20.69;73.92;99360.45;4182635;83;22894;-84
2021/07/10 07:50:42;;;;;;;1.30;0.80;;;;;;;20.75;73.26;99367.69;4181907;83;21042;-83
2021/07/10 07:56:44;;;;;;;1.80;1.05;;;;;;;20.59;72.94;99375.41;4163639;84;21039;-84
2021/07/10 08:02:45;;;;;;;1.65;0.93;;;;;;;20.66;72.73;99375.83;4162385;84;21054;-83
2021/07/10 08:08:47;;;;;;;2.27;1.00;;;;;;;20.72;72.63;99375.52;4175417;84;21086;-84
2021/07/10 08:14:50;;;;;;;1.12;0.98;;;;;;;20.85;72.26;99368.81;4158436;84;21046;-83
2021/07/10 08:20:52;;;;;;;4.25;0.95;;;;;;;21.26;71.99;99367.61;4158034;84;21073;-84
2021/07/10 08:26:53;;;;;;;1.45;0.80;;;;;;;21.18;71.38;99368.22;4167069;83;21550;-84
2021/07/10 08:32:55;;;;;;;0.55;0.50;;;;;;;21.01;71.21;99378.59;4172806;84;21570;-83
2021/07/10 08:38:56;;;;;;;1.57;0.50;;;;;;;21.14;70.32;99377.28;4173911;84;21065;-83
2021/07/10 08:45:00;;;;;;;1.67;0.68;;;;;;;21.35;70.08;99370.55;4168892;84;21117;-83
2021/07/10 08:51:06;;;;;;;1.02;0.70;;;;;;;21.38;69.33;99379.42;4169596;83;22351;-84
2021/07/10 08:57:08;;;;;;;2.17;0.70;;;;;;;21.18;69.02;99381.54;4186784;82;21063;-84
2021/07/10 09:03:09;;;;;;;1.65;0.70;;;;;;;21.28;69.67;99372.11;4181933;83;22254;-84
2021/07/10 09:09:10;;;;;;;1.67;0.70;;;;;;;21.54;69.05;99374.42;4188741;83;21599;-85
2021/07/10 09:15:20;;;;;;;0.62;0.62;;;;;;;21.50;68.55;99383.50;4186448;83;21590;-83
2021/07/10 09:21:50;;;;;;;8.53;1.10;;;;;;;21.53;68.16;99383.37;4181656;82;21505;-84
2021/07/10 09:27:53;;;;;;;0.80;0.70;;;;;;;21.74;67.51;99375.84;4179097;83;21014;-84
2021/07/10 09:34:05;;;;;;;3.17;0.80;;;;;;;22.02;67.89;99366.55;4187373;83;21053;-84
2021/07/10 09:40:12;;;;;;;1.40;0.68;;;;;;;22.12;67.36;99379.38;4173444;83;21046;-84
2021/07/10 09:46:24;;;;;;;3.27;0.78;;;;;;;22.09;67.21;99371.90;4181555;83;21073;-84
2021/07/10 09:52:32;;;;;;;2.60;1.10;;;;;;;22.22;67.25;99369.32;4191407;82;21108;-84
2021/07/10 09:58:34;;;;;;;4.35;1.20;;;;;;;22.55;66.88;99374.12;4183602;83;22115;-83
2021/07/10 10:04:44;;;;;;;2.45;0.95;;;;;;;22.63;66.28;99377.62;4190480;83;21775;-84
2021/07/10 10:10:53;;;;;;;2.00;1.10;;;;;;;22.76;66.67;99380.41;4180714;83;21058;-84
2021/07/10 10:16:56;;;;;;;0.88;0.80;;;;;;;23.20;65.71;99385.72;4186152;83;21100;-84
2021/07/10 10:23:00;;;;;;;2.22;0.80;;;;;;;23.36;65.15;99375.65;4181309;83;22045;-85
2021/07/10 10:29:02;;;;;;;1.98;1.00;;;;;;;23.37;65.02;99373.80;4183674;83;21092;-84
2021/07/10 10:35:04;;;;;;;1.82;0.95;;;;;;;23.68;64.12;99364.14;4190235;83;21082;-84
2021/07/10 10:41:06;;;;;;;2.60;1.22;;;;;;;23.77;63.54;99366.39;4178685;83;21042;-85
2021/07/10 10:47:10;;;;;;;1.27;0.90;;;;;;;23.50;63.05;99370.36;4185123;83;21083;-85
2021/07/10 10:53:24;;;;;;;2.35;1.15;;;;;;;23.27;63.25;99376.36;4189211;83;21100;-85
2021/07/10 10:59:41;;;;;;;2.35;1.15;;;;;;;23.14;63.26;99361.61;4159750;83;21754;-85
2021/07/10 11:05:50;;;;;;;1.07;0.78;;;;;;;23.14;64.00;99354.02;4176460;83;21066;-84
2021/07/10 11:11:54;;;;;;;1.57;0.80;;;;;;;24.19;62.39;99343.07;4179730;83;21058;-85
2021/07/10 11:17:59;;;;;;;0.80;0.60;;;;;;;25.37;61.32;99338.03;4186112;83;21050;-85
2021/07/10 11:24:21;;;;;;;2.00;0.60;;;;;;;26.44;60.44;99339.77;4190031;83;21545;-85
2021/07/10 11:30:22;;;;;;;1.20;0.57;;;;;;;26.73;59.46;99337.81;4190666;83;21089;-84
2021/07/10 11:36:47;;;;;;;2.02;0.65;;;;;;;26.69;57.35;99336.58;4184824;83;21022;-84
2021/07/10 11:42:49;;;;;;;2.83;0.93;;;;;;;26.42;57.68;99337.30;4182402;83;21029;-85
2021/07/10 11:48:51;;;;;;;1.00;0.90;;;;;;;26.26;56.72;99336.25;4179648;83;21019;-86
2021/07/10 11:54:59;;;;;;;2.40;0.95;;;;;;;26.17;56.17;99339.09;4196059;83;21017;-85
2021/07/10 12:01:02;;;;;;;1.90;0.85;;;;;;;25.96;56.19;99333.19;4207153;83;21552;-84
2021/07/10 12:07:20;;;;;;;1.42;0.75;;;;;;;26.23;55.68;99333.78;4207985;83;21854;-85
2021/07/10 12:13:25;;;;;;;0.75;0.70;;;;;;;26.42;55.16;99326.83;4203533;83;21642;-85
2021/07/10 12:19:27;;;;;;;1.60;0.80;;;;;;;26.14;54.13;99318.35;4183203;83;22523;-84
2021/07/10 12:25:59;;;;;;;2.47;1.00;;;;;;;26.04;54.13;99309.83;4197150;83;21050;-85
2021/07/10 12:32:01;;;;;;;4.53;1.00;;;;;;;26.00;54.04;99306.39;4201006;83;21094;-84
2021/07/10 12:38:11;;;;;;;2.50;0.78;;;;;;;25.99;54.50;99297.80;4202481;83;21768;-85
2021/07/10 12:44:24;;;;;;;1.15;0.80;;;;;;;25.57;54.57;99301.14;4197505;83;21039;-85
2021/07/10 12:50:25;;;;;;;1.35;0.68;;;;;;;25.12;54.61;99310.92;4206795;83;21043;-85
2021/07/10 12:56:46;;;;;;;2.58;0.80;;;;;;;24.81;55.37;99296.25;4202296;83;21088;-86
2021/07/10 13:02:55;;;;;;;1.05;0.90;;;;;;;24.66;55.89;99297.44;4192485;83;21019;-85
2021/07/10 13:08:58;;;;;;;1.00;0.80;;;;;;;24.51;55.82;99285.22;4195037;83;21730;-85
2021/07/10 13:15:04;;;;;;;1.27;1.00;;;;;;;24.30;56.12;99264.50;4191205;83;21110;-85
2021/07/10 13:21:11;;;;;;;3.87;1.20;;;;;;;24.25;56.49;99288.09;4191918;83;21058;-84
2021/07/10 13:27:13;;;;;;;1.20;1.10;;;;;;;24.25;56.49;99288.09;4194304;83;21155;-85
2021/07/10 13:33:16;;;;;;;0.80;0.80;;;;;;;23.94;56.51;99268.50;4195975;83;22368;-84
2021/07/10 13:39:23;;;;;;;0.80;0.80;;;;;;;24.21;56.82;99284.66;4169226;83;21591;-84
2021/07/10 13:45:24;;;;;;;1.15;0.90;;;;;;;24.17;56.53;99278.41;4197734;83;21654;-84
2021/07/10 13:51:26;;;;;;;0.88;0.88;;;;;;;24.10;56.25;99278.70;4200867;83;21075;-85
2021/07/10 13:57:53;;;;;;;1.25;0.80;;;;;;;24.16;56.30;99269.87;4201448;83;21146;-85
2021/07/10 14:03:51;;;;;;;1.40;1.10;;;;;;;24.03;54.96;99268.57;4195993;83;21042;-85
2021/07/10 14:09:53;;;;;;;2.37;0.90;;;;;;;24.18;55.85;99263.20;4196702;83;21122;-82
2021/07/10 14:15:57;;;;;;;2.75;0.90;;;;;;;24.21;56.02;99260.25;4200074;83;21082;-85
2021/07/10 14:21:59;;;;;;;2.17;0.93;;;;;;;24.21;55.82;99263.05;4197807;83;21074;-83
2021/07/10 14:28:05;;;;;;;1.47;0.90;;;;;;;24.37;56.33;99248.02;4197651;83;21106;-84
2021/07/10 14:34:07;;;;;;;1.32;0.88;;;;;;;24.48;55.88;99246.97;4199181;83;21070;-85
2021/07/10 14:40:10;;;;;;;1.00;0.90;;;;;;;24.45;55.56;99245.09;4198875;83;21583;-85
2021/07/10 14:46:14;;;;;;;1.02;0.82;;;;;;;24.52;55.47;99243.42;4200869;83;21527;-86
2021/07/10 14:52:17;;;;;;;1.02;0.90;;;;;;;24.41;55.84;99234.08;4198449;83;21011;-85
2021/07/10 14:58:18;;;;;;;1.42;1.00;;;;;;;24.38;56.13;99230.02;4181439;83;21124;-85
2021/07/10 15:04:19;;;;;;;1.32;0.90;;;;;;;24.40;56.25;99223.34;4176308;83;21074;-85
2021/07/10 15:10:22;;;;;;;0.93;0.70;;;;;;;24.40;56.25;99223.34;4186967;83;21116;-85
2021/07/10 15:16:29;;;;;;;1.20;1.10;;;;;;;24.23;55.99;99215.03;4173665;83;21213;-85
2021/07/10 15:22:31;;;;;;;;;;;;;;;24.20;55.96;99210.36;4189260;83;21543;-86
2021/07/10 15:28:32;;;;;;;1.32;0.90;;;;;;;24.13;55.46;99205.83;4179364;83;20132;-86
2021/07/10 15:34:34;;;;;;;2.17;0.85;;;;;;;24.15;55.88;99199.16;4185914;83;21081;-86
2021/07/10 15:40:35;;;;;;;1.27;1.05;;;;;;;24.09;56.00;99194.02;4187242;83;21054;-85
2021/07/10 15:46:40;;;;;;;1.57;1.05;;;;;;;24.05;55.62;99196.19;4182030;83;21205;-84
2021/07/10 15:52:43;;;;;;;2.10;0.80;;;;;;;24.01;55.24;99185.75;4177882;83;20999;-85
2021/07/10 15:58:44;;;;;;;1.98;1.07;;;;;;;23.90;54.99;99188.16;4161962;83;21095;-85
2021/07/10 16:04:45;;;;;;;3.45;1.15;;;;;;;23.80;55.26;99180.20;4161245;84;21051;-86
2021/07/10 16:10:48;;;;;;;2.30;1.10;;;;;;;23.72;54.95;99176.91;4161541;84;21112;-85
2021/07/10 16:16:49;;;;;;;1.20;1.10;;;;;;;23.70;54.85;99184.18;4160101;84;21319;-85
2021/07/10 16:22:51;;;;;;;4.70;1.10;;;;;;;23.65;55.30;99175.02;4166641;83;21025;-85
2021/07/10 16:28:52;;;;;;;1.12;1.02;;;;;;;23.60;55.76;99181.95;4154660;84;21097;-84
2021/07/10 16:34:54;;;;;;;1.37;1.00;;;;;;;23.55;56.10;99188.16;4151222;83;21642;-85
2021/07/10 16:40:55;;;;;;;2.27;1.20;;;;;;;23.50;56.53;99190.14;4166054;84;21085;-85
2021/07/10 16:46:56;;;;;;;2.95;1.42;;;;;;;23.48;56.40;99191.20;4165604;84;21112;-84
2021/07/10 16:52:58;;;;;;;1.32;1.22;;;;;;;23.44;56.46;99189.18;4158330;84;21077;-85
2021/07/10 16:58:59;;;;;;;1.90;1.30;;;;;;;23.43;57.09;99197.38;4148664;85;21125;-85
2021/07/10 17:05:01;;;;;;;2.30;1.27;;;;;;;23.39;56.98;99191.77;4141077;85;21058;-84
2021/07/10 17:11:05;;;;;;;3.40;1.12;;;;;;;23.36;56.94;99197.66;4138047;84;21090;-85
2021/07/10 17:17:06;;;;;;;2.27;1.40;;;;;;;23.35;57.17;99199.52;4141823;84;21035;-84
2021/07/10 17:23:08;;;;;;;2.37;1.60;;;;;;;23.36;57.35;99201.06;4137189;84;21079;-85
2021/07/10 17:29:11;;;;;;;2.30;1.65;;;;;;;23.30;57.77;99203.67;3986766;82;10000519;-85
2021/07/10 17:35:16;;;;;;;5.62;2.50;;;;;;;23.27;57.99;99200.40;4105834;85;21075;-85
2021/07/10 17:41:17;;;;;;;3.98;3.12;;;;;;;23.16;58.01;99205.56;4099083;85;21059;-86
2021/07/10 17:47:20;;;;;;;3.75;2.65;;;;;;;23.02;58.25;99210.27;4103005;85;21120;-86
2021/07/10 17:53:21;;;;;;;6.75;5.45;;;;;;;22.93;58.49;99209.55;4096156;85;21110;-85
2021/07/10 17:59:23;;;;;;;6.58;4.03;;;;;;;22.82;58.76;99213.94;4052936;85;21099;-85
2021/07/10 18:05:24;;;;;;;4.50;3.70;;;;;;;22.68;59.14;99223.59;4108318;84;21024;-85
2021/07/10 18:11:26;;;;;;;5.85;4.47;;;;;;;22.54;59.54;99223.28;4112628;84;21056;-85
2021/07/10 18:17:28;;;;;;;10.45;7.75;;;;;;;22.40;60.00;99227.30;4118381;84;21030;-85
2021/07/10 18:23:30;;;;;;;6.22;4.92;;;;;;;22.34;60.25;99226.31;4107729;84;21091;-85
2021/07/10 18:29:32;;;;;;;7.17;5.50;;;;;;;22.25;61.29;99226.22;4141579;84;21059;-85
2021/07/10 18:35:35;;;;;;;9.13;4.90;;;;;;;22.17;61.53;99231.84;4106775;85;21154;-86
2021/07/10 18:41:37;;;;;;;9.80;6.20;;;;;;;22.09;62.18;99229.12;4113465;84;21059;-85
2021/07/10 18:47:42;;;;;;;12.00;5.35;;;;;;;21.95;62.61;99232.34;4133754;84;21952;-85
2021/07/10 18:53:43;;;;;;;8.05;5.72;;;;;;;21.77;63.22;99230.70;4111965;84;20991;-85
2021/07/10 18:59:44;;;;;;;6.67;4.53;;;;;;;21.68;64.14;99249.45;4123126;84;21511;-85
2021/07/10 19:05:46;;;;;;;8.85;5.53;;;;;;;21.62;64.88;99248.44;4047251;86;21726;-84
2021/07/10 19:11:47;;;;;;;7.08;5.50;;;;;;;21.50;64.56;99247.78;4048448;86;21131;-85
2021/07/10 19:17:50;;;;;;;8.03;6.25;;;;;;;21.27;65.50;99236.91;4109950;84;21043;-85
2021/07/10 19:23:51;;;;;;;9.15;6.33;;;;;;;21.11;65.76;99235.56;4105943;84;21027;-85
2021/07/10 19:29:53;;;;;;;19.87;12.47;;;;;;;20.95;66.10;99236.20;4000835;84;9999793;-85
2021/07/10 19:35:54;;;;;;;16.87;11.65;;;;;;;20.78;66.68;99241.63;4118059;84;21024;-85
2021/07/10 19:41:55;;;;;;;248.15;149.35;;;;;;;20.68;67.32;99234.33;4103872;84;21625;-85
2021/07/10 19:47:57;;;;;;;204.57;122.95;;;;;;;20.57;67.32;99235.20;4110528;85;21874;-84
2021/07/10 19:53:58;;;;;;;231.07;135.57;;;;;;;20.33;68.06;99232.45;4114590;84;21659;-85
2021/07/10 20:00:00;;;;;;;236.82;144.10;;;;;;;20.08;68.77;99245.50;4109904;84;21091;-84
2021/07/10 20:06:03;;;;;;;171.35;103.70;;;;;;;20.02;69.35;99250.01;4108783;84;21516;-84
2021/07/10 20:12:05;;;;;;;79.22;47.27;;;;;;;19.97;70.11;99255.47;4089817;84;21102;-84
2021/07/10 20:18:10;;;;;;;25.88;16.55;;;;;;;19.88;70.33;99252.51;4110937;84;21063;-84
2021/07/10 20:24:19;;;;;;;12.40;7.95;;;;;;;19.75;70.20;99254.37;4112194;84;21055;-84
2021/07/10 20:30:21;;;;;;;12.75;7.05;;;;;;;19.62;70.36;99264.56;4110596;84;21031;-85
2021/07/10 20:36:22;;;;;;;10.23;6.53;;;;;;;19.52;70.45;99268.95;4106192;84;21523;-84
2021/07/10 20:42:23;;;;;;;8.18;5.87;;;;;;;19.43;70.72;99257.05;4111892;84;21075;-84
2021/07/10 20:48:25;;;;;;;9.93;6.22;;;;;;;19.32;71.21;99251.52;4118767;84;21060;-84
2021/07/10 20:54:26;;;;;;;7.15;5.05;;;;;;;19.33;71.43;99257.24;4116586;84;21090;-84
2021/07/10 21:00:29;;;;;;;10.35;5.92;;;;;;;19.27;71.27;99270.81;4091986;85;21699;-84
2021/07/10 21:06:31;;;;;;;11.40;5.30;;;;;;;19.13;71.71;99250.28;4094285;85;21547;-84
2021/07/10 21:12:33;;;;;;;8.28;5.72;;;;;;;18.92;71.73;99252.67;4093211;85;21056;-84
2021/07/10 21:18:35;;;;;;;7.30;4.72;;;;;;;18.86;72.41;99255.73;4109743;85;21557;-84
2021/07/10 21:24:36;;;;;;;6.45;3.80;;;;;;;18.72;72.49;99255.39;4101272;85;21052;-84
2021/07/10 21:30:43;;;;;;;5.75;3.42;;;;;;;18.69;72.43;99258.42;4101452;85;21068;-84
2021/07/10 21:36:44;;;;;;;5.40;3.57;;;;;;;18.70;72.65;99263.34;4093268;84;21137;-85
2021/07/10 21:42:46;;;;;;;7.97;3.47;;;;;;;18.71;72.98;99255.98;4097002;84;21099;-84
2021/07/10 21:48:47;;;;;;;6.03;3.65;;;;;;;18.68;73.01;99260.23;4090290;85;21032;-84
2021/07/10 21:54:49;;;;;;;6.90;3.95;;;;;;;18.60;73.43;99249.84;4103788;84;21011;-84
2021/07/10 22:00:56;;;;;;;4.50;3.50;;;;;;;18.54;73.75;99245.22;4081204;85;21043;-84
2021/07/10 22:06:58;;;;;;;4.85;3.80;;;;;;;18.40;74.31;99235.76;4101957;84;22332;-84
2021/07/10 22:13:00;;;;;;;5.90;5.25;;;;;;;18.28;74.29;99226.60;4099912;84;21076;-84
2021/07/10 22:19:02;;;;;;;7.25;4.30;;;;;;;18.20;74.50;99224.55;4097580;85;21580;-83
2021/07/10 22:25:05;;;;;;;7.60;4.30;;;;;;;18.09;74.55;99215.63;4101965;84;21059;-83
2021/07/10 22:31:08;;;;;;;12.47;4.25;;;;;;;18.00;74.85;99222.30;4101247;84;21028;-83
2021/07/10 22:37:09;;;;;;;9.38;5.60;;;;;;;17.95;75.21;99210.30;4101728;85;21090;-83
2021/07/10 22:43:10;;;;;;;5.00;4.20;;;;;;;17.92;75.20;99201.44;4093238;85;21086;-84
2021/07/10 22:49:12;;;;;;;7.58;4.12;;;;;;;17.88;75.62;99199.94;4110620;84;21044;-84
2021/07/10 22:55:13;;;;;;;6.28;4.03;;;;;;;17.77;75.73;99191.80;4101095;85;21032;-83
2021/07/10 23:01:16;;;;;;;13.85;6.22;;;;;;;17.61;75.95;99199.92;4132734;84;21072;-83
2021/07/10 23:07:17;;;;;;;5.35;4.45;;;;;;;17.46;76.46;99200.53;4117281;84;21085;-84
2021/07/10 23:13:18;;;;;;;5.20;4.20;;;;;;;17.34;76.55;99194.91;4139515;84;21066;-84
2021/07/10 23:19:19;;;;;;;6.15;4.20;;;;;;;17.29;76.97;99198.13;4148513;84;21550;-83
2021/07/10 23:25:22;;;;;;;6.08;4.60;;;;;;;17.27;77.43;99200.55;4139801;84;21105;-83
2021/07/10 23:31:25;;;;;;;6.83;5.37;;;;;;;17.31;77.70;99201.28;4147222;84;21113;-83
2021/07/10 23:37:27;;;;;;;7.00;5.40;;;;;;;17.38;77.90;99198.44;4139730;84;21142;-83
2021/07/10 23:43:28;;;;;;;12.18;7.10;;;;;;;17.38;77.96;99196.26;4140821;84;21066;-83
2021/07/10 23:49:29;;;;;;;11.03;7.85;;;;;;;17.38;78.18;99183.22;4140108;84;21134;-84
2021/07/10 23:55:33;;;;;;;10.75;8.55;;;;;;;17.42;78.51;99190.06;4141806;84;21098;-83
